Terminal Aerodrome Forecast
Issued by NWS

Home | Current Version | Previous Version | Text Only | Print | Product List | Glossary On
Versions: 1 2 3 4 5 6 7 8 9 10 11 12
000
FTAK31 PAJN 162300
TAFAWG
TAF
PAWG 162322Z 1700/1724 10006KT P6SM SCT040 OVC080
     FM170100 10009KT P6SM VCSH BKN035 OVC060
     FM170700 13010KT P6SM -RA BKN025 OVC050
     FM171400 11006KT 6SM -RA BR OVC025
      AMD LTD TO CLD VIS AND WIND 1706/1715=

USA.gov is the U.S. government's official web portal to all federal, state and local government web resources and services.